Time;durP1;ratioP1;P1;durP2;ratioP2;P2;SDS_P1;SDS_P2;PMS_P1;PMS_P2;Temp;Humidity;BMP_temperature;BMP_pressure;BME280_temperature;BME280_humidity;BME280_pressure;Samples;Min_cycle;Max_cycle;Signal;HPM_P1;HPM_P2
2021/09/08 00:01:48;;;;;;;16.08;9.20;;;13.60;99.90;;;;;;5049067;28;20463;-73
2021/09/08 00:04:13;;;;;;;17.83;9.55;;;13.70;99.90;;;;;;5047681;28;20017;-73
2021/09/08 00:06:39;;;;;;;18.02;8.95;;;13.50;99.90;;;;;;5047955;28;20063;-73
2021/09/08 00:09:04;;;;;;;18.02;9.40;;;13.70;99.90;;;;;;5046012;28;20460;-73
2021/09/08 00:11:30;;;;;;;17.75;9.35;;;13.50;99.90;;;;;;5047253;28;20036;-74
2021/09/08 00:13:55;;;;;;;17.83;9.25;;;13.40;99.90;;;;;;5047936;28;20365;-73
2021/09/08 00:16:21;;;;;;;16.27;9.00;;;13.50;99.90;;;;;;5048033;28;20028;-73
2021/09/08 00:18:46;;;;;;;19.73;9.57;;;13.40;99.90;;;;;;5044763;28;20024;-73
2021/09/08 00:21:12;;;;;;;20.27;9.65;;;13.40;99.90;;;;;;5047798;28;20400;-74
2021/09/08 00:23:38;;;;;;;16.80;8.80;;;13.40;99.90;;;;;;5044194;28;20025;-73
2021/09/08 00:26:03;;;;;;;19.58;9.55;;;13.40;99.90;;;;;;5048305;28;20029;-73
2021/09/08 00:28:29;;;;;;;23.48;8.90;;;13.40;99.90;;;;;;5046745;28;20480;-73
2021/09/08 00:30:54;;;;;;;19.02;9.18;;;13.30;99.90;;;;;;5046893;28;20028;-74
2021/09/08 00:33:20;;;;;;;15.43;8.82;;;13.30;99.90;;;;;;5046527;28;20391;-73
2021/09/08 00:35:45;;;;;;;16.98;8.95;;;13.30;99.90;;;;;;5047769;28;20721;-73
2021/09/08 00:38:11;;;;;;;19.98;8.77;;;13.30;99.90;;;;;;5047587;28;20108;-73
2021/09/08 00:40:38;;;;;;;24.05;8.65;;;13.30;99.90;;;;;;5045401;28;20065;-73
2021/09/08 00:43:04;;;;;;;17.52;8.82;;;13.20;99.90;;;;;;5047142;28;20024;-74
2021/09/08 00:45:29;;;;;;;19.98;8.85;;;13.30;99.90;;;;;;5053786;28;20024;-73
2021/09/08 00:47:55;;;;;;;15.95;8.60;;;13.20;99.90;;;;;;5051406;28;20025;-73
2021/09/08 00:50:20;;;;;;;17.40;9.55;;;13.20;99.90;;;;;;5042173;28;20025;-73
2021/09/08 00:52:47;;;;;;;20.35;9.48;;;13.20;99.90;;;;;;5045036;28;20029;-73
2021/09/08 00:55:13;;;;;;;17.30;8.68;;;13.10;99.90;;;;;;5048231;28;20033;-74
2021/09/08 00:57:40;;;;;;;18.45;8.70;;;13.10;99.90;;;;;;5046848;28;20047;-73
2021/09/08 01:00:06;;;;;;;14.30;8.25;;;13.00;99.90;;;;;;5047519;28;20411;-73
2021/09/08 01:02:32;;;;;;;16.45;8.57;;;13.00;99.90;;;;;;5046126;28;20036;-73
2021/09/08 01:04:58;;;;;;;18.60;8.70;;;13.00;99.90;;;;;;5038529;28;20029;-73
2021/09/08 01:07:24;;;;;;;17.98;8.15;;;13.00;99.90;;;;;;5047819;28;20559;-73
2021/09/08 01:09:50;;;;;;;20.40;8.52;;;12.90;99.90;;;;;;5048351;28;20111;-73
2021/09/08 01:12:16;;;;;;;16.52;9.13;;;12.90;99.90;;;;;;5051697;28;20115;-73
2021/09/08 01:14:42;;;;;;;19.60;8.73;;;12.90;99.90;;;;;;5051479;28;20184;-73
2021/09/08 01:17:08;;;;;;;14.73;8.13;;;13.00;99.90;;;;;;5050869;28;20119;-72
2021/09/08 01:19:35;;;;;;;17.23;8.77;;;12.90;99.90;;;;;;5049469;28;20109;-73
2021/09/08 01:22:01;;;;;;;17.55;8.65;;;12.90;99.90;;;;;;5050116;28;20033;-73
2021/09/08 01:24:27;;;;;;;14.90;8.10;;;12.80;99.90;;;;;;5043652;28;20028;-73
2021/09/08 01:26:55;;;;;;;20.92;8.95;;;12.70;99.90;;;;;;5050760;28;20024;-73
2021/09/08 01:29:21;;;;;;;17.13;8.57;;;12.70;99.90;;;;;;5053560;28;20025;-73
2021/09/08 01:31:59;;;;;;;15.60;7.93;;;12.70;99.90;;;;;;5051472;28;20109;-72
2021/09/08 01:34:27;;;;;;;15.60;8.55;;;12.70;99.90;;;;;;5039134;28;20033;-72
2021/09/08 01:36:53;;;;;;;17.60;8.15;;;12.70;99.90;;;;;;5051972;28;20037;-73
2021/09/08 01:39:19;;;;;;;18.83;7.60;;;12.70;99.90;;;;;;5054667;28;20050;-72
2021/09/08 01:41:46;;;;;;;14.77;8.40;;;12.70;99.90;;;;;;5045062;28;20099;-73
2021/09/08 01:44:25;;;;;;;20.73;8.32;;;12.70;99.90;;;;;;5046992;28;20047;-73
2021/09/08 01:46:53;;;;;;;15.55;7.50;;;12.60;99.90;;;;;;5048998;28;20538;-73
2021/09/08 01:49:18;;;;;;;17.20;8.25;;;12.60;99.90;;;;;;5049704;28;20021;-73
2021/09/08 01:51:44;;;;;;;17.58;8.20;;;12.60;99.90;;;;;;5049377;28;20110;-73
2021/09/08 01:54:10;;;;;;;16.48;7.80;;;12.60;99.90;;;;;;5050500;28;20055;-73
2021/09/08 01:56:36;;;;;;;14.23;7.43;;;12.60;99.90;;;;;;5048074;28;20018;-73
2021/09/08 01:59:01;;;;;;;13.05;7.63;;;12.50;99.90;;;;;;5047820;28;20029;-73
2021/09/08 02:01:27;;;;;;;17.15;7.50;;;12.50;99.90;;;;;;5049681;28;20029;-73
2021/09/08 02:03:52;;;;;;;12.32;7.28;;;12.50;99.90;;;;;;5050756;28;20423;-73
2021/09/08 02:06:26;;;;;;;13.68;7.60;;;12.60;99.90;;;;;;5049841;28;20025;-73
2021/09/08 02:08:59;;;;;;;10.52;6.72;;;12.50;99.90;;;;;;5050502;28;20032;-73
2021/09/08 02:11:25;;;;;;;11.38;6.88;;;12.50;99.90;;;;;;5040940;28;20502;-73
2021/09/08 02:13:51;;;;;;;14.05;7.45;;;12.50;99.90;;;;;;5050827;28;20060;-73
2021/09/08 02:16:20;;;;;;;12.20;7.15;;;12.40;99.90;;;;;;5051875;28;20040;-73
2021/09/08 02:18:47;;;;;;;12.10;6.90;;;12.40;99.90;;;;;;5045374;28;20032;-73
2021/09/08 02:21:15;;;;;;;13.70;7.18;;;12.40;99.90;;;;;;5048606;28;20048;-73
2021/09/08 02:23:41;;;;;;;14.30;7.57;;;12.40;99.90;;;;;;5054934;28;20116;-73
2021/09/08 02:26:09;;;;;;;12.63;7.45;;;12.40;99.90;;;;;;5050350;28;20167;-73
2021/09/08 02:28:34;;;;;;;11.57;7.10;;;12.40;99.90;;;;;;5048556;28;20021;-73
2021/09/08 02:31:00;;;;;;;11.88;7.22;;;12.40;99.90;;;;;;5050393;28;20029;-73
2021/09/08 02:33:25;;;;;;;17.65;6.80;;;12.30;99.90;;;;;;5048967;28;20395;-73
2021/09/08 02:35:51;;;;;;;11.35;6.95;;;12.30;99.90;;;;;;5048747;28;20108;-73
2021/09/08 02:38:17;;;;;;;14.40;7.65;;;12.30;99.90;;;;;;5048300;28;20033;-73
2021/09/08 02:40:43;;;;;;;12.15;6.75;;;12.20;99.90;;;;;;5049631;28;20037;-73
2021/09/08 02:43:08;;;;;;;12.75;6.82;;;12.20;99.90;;;;;;5049084;28;20029;-73
2021/09/08 02:45:34;;;;;;;12.82;6.78;;;12.20;99.90;;;;;;5048222;28;22035;-73
2021/09/08 02:47:59;;;;;;;11.98;7.18;;;12.10;99.90;;;;;;5049114;28;20052;-74
2021/09/08 02:50:25;;;;;;;11.02;7.20;;;12.30;99.90;;;;;;5047740;28;20025;-74
2021/09/08 02:52:50;;;;;;;11.68;6.65;;;12.20;99.90;;;;;;5048307;28;20116;-73
2021/09/08 02:55:16;;;;;;;12.75;6.55;;;12.10;99.90;;;;;;5040830;28;20033;-73
2021/09/08 02:57:42;;;;;;;11.20;5.90;;;12.10;99.90;;;;;;5048411;28;20033;-73
2021/09/08 03:00:08;;;;;;;14.52;6.55;;;12.10;99.90;;;;;;5049123;28;20025;-73
2021/09/08 03:02:36;;;;;;;13.75;6.35;;;12.10;99.90;;;;;;5048821;28;20249;-73
2021/09/08 03:05:02;;;;;;;14.40;6.82;;;12.10;99.90;;;;;;5049583;28;20024;-73
2021/09/08 03:07:28;;;;;;;11.80;6.85;;;12.00;99.90;;;;;;5047023;28;20027;-73
2021/09/08 03:09:53;;;;;;;11.98;6.45;;;12.10;99.90;;;;;;5049095;28;20434;-74
2021/09/08 03:12:20;;;;;;;11.45;6.25;;;12.00;99.90;;;;;;5049828;28;20025;-73
2021/09/08 03:14:46;;;;;;;10.43;5.88;;;12.00;99.90;;;;;;5048735;28;20028;-73
2021/09/08 03:17:11;;;;;;;10.75;6.55;;;12.00;99.90;;;;;;5048774;28;20090;-74
2021/09/08 03:19:37;;;;;;;12.80;6.85;;;12.00;99.90;;;;;;5044939;28;20048;-73
2021/09/08 03:22:02;;;;;;;12.27;6.35;;;12.00;99.90;;;;;;5048347;28;20079;-74
2021/09/08 03:24:28;;;;;;;14.05;6.55;;;12.00;99.90;;;;;;5048749;28;20535;-73
2021/09/08 03:26:53;;;;;;;13.77;6.95;;;12.00;99.90;;;;;;5048060;28;20009;-73
2021/09/08 03:29:20;;;;;;;10.90;6.45;;;12.00;99.90;;;;;;5049281;28;20051;-73
2021/09/08 03:31:46;;;;;;;11.32;6.07;;;11.90;99.90;;;;;;5048417;28;20063;-73
2021/09/08 03:34:11;;;;;;;15.48;7.20;;;11.90;99.90;;;;;;5048148;28;20025;-73
2021/09/08 03:36:37;;;;;;;15.43;6.75;;;11.80;99.90;;;;;;5048723;28;20483;-74
2021/09/08 03:39:03;;;;;;;12.18;6.57;;;12.00;99.90;;;;;;5047314;28;20033;-73
2021/09/08 03:41:28;;;;;;;13.30;7.10;;;11.90;99.90;;;;;;5056062;28;20479;-73
2021/09/08 03:43:54;;;;;;;14.68;6.95;;;11.90;99.90;;;;;;5047851;28;20025;-73
2021/09/08 03:46:19;;;;;;;11.88;6.80;;;11.80;99.90;;;;;;5047730;28;20551;-73
2021/09/08 03:48:45;;;;;;;11.38;6.80;;;11.80;99.90;;;;;;5032816;28;20032;-74
2021/09/08 03:51:10;;;;;;;11.27;7.13;;;11.90;99.90;;;;;;5046709;28;20422;-73
2021/09/08 03:53:36;;;;;;;11.38;6.32;;;11.80;99.90;;;;;;5047765;28;20533;-74
2021/09/08 03:56:02;;;;;;;11.20;6.63;;;11.80;99.90;;;;;;5048433;28;20364;-73
2021/09/08 03:58:28;;;;;;;13.77;6.60;;;11.70;99.90;;;;;;5047036;28;20025;-74
2021/09/08 04:00:54;;;;;;;12.50;6.38;;;11.70;99.90;;;;;;5047668;28;20156;-74
2021/09/08 04:03:19;;;;;;;16.05;6.78;;;11.80;99.90;;;;;;5048615;28;20151;-74
2021/09/08 04:05:45;;;;;;;11.82;6.95;;;11.70;99.90;;;;;;5046685;28;20028;-73
2021/09/08 04:08:10;;;;;;;10.38;6.40;;;11.70;99.90;;;;;;5039531;28;20108;-74
2021/09/08 04:10:36;;;;;;;11.55;6.60;;;11.60;99.90;;;;;;5039934;28;20025;-74
2021/09/08 04:13:01;;;;;;;10.95;6.22;;;11.70;99.90;;;;;;5047637;28;20442;-73
2021/09/08 04:15:26;;;;;;;12.38;6.85;;;11.70;99.90;;;;;;5047578;28;20025;-73
2021/09/08 04:17:52;;;;;;;12.45;6.82;;;11.60;99.90;;;;;;5046899;28;20021;-73
2021/09/08 04:20:18;;;;;;;9.73;6.25;;;11.60;99.90;;;;;;5047292;28;20136;-73
2021/09/08 04:22:43;;;;;;;10.68;5.90;;;11.60;99.90;;;;;;5047036;28;20029;-73
2021/09/08 04:25:09;;;;;;;10.75;6.07;;;11.60;99.90;;;;;;5047379;28;20096;-73
2021/09/08 04:27:34;;;;;;;14.30;6.38;;;11.60;99.90;;;;;;5046874;28;20067;-73
2021/09/08 04:30:00;;;;;;;11.55;5.97;;;11.60;99.90;;;;;;5043247;28;20071;-73
2021/09/08 04:32:26;;;;;;;13.80;5.93;;;11.60;99.90;;;;;;5052869;28;20081;-73
2021/09/08 04:34:51;;;;;;;11.65;6.35;;;11.50;99.90;;;;;;5055418;28;20032;-73
2021/09/08 04:37:17;;;;;;;11.55;6.50;;;11.50;99.90;;;;;;5048264;28;20029;-72
2021/09/08 04:39:43;;;;;;;12.48;5.88;;;11.60;99.90;;;;;;5046683;28;20902;-72
2021/09/08 04:42:09;;;;;;;11.65;6.60;;;11.50;99.90;;;;;;5044893;28;20110;-72
2021/09/08 04:44:34;;;;;;;12.27;5.47;;;11.50;99.90;;;;;;5046547;28;20032;-72
2021/09/08 04:47:02;;;;;;;14.40;5.82;;;11.50;99.90;;;;;;5046167;28;20027;-73
2021/09/08 04:49:28;;;;;;;10.02;5.82;;;11.40;99.90;;;;;;5045304;28;20029;-72
2021/09/08 04:51:54;;;;;;;10.05;5.63;;;11.40;99.90;;;;;;5045886;28;20047;-73
2021/09/08 04:54:19;;;;;;;12.18;5.97;;;11.40;99.90;;;;;;5048699;28;20108;-72
2021/09/08 04:56:45;;;;;;;11.13;5.93;;;11.40;99.90;;;;;;5046873;28;20071;-72
2021/09/08 04:59:10;;;;;;;11.57;6.00;;;11.40;99.90;;;;;;5054799;28;20527;-73
2021/09/08 05:01:36;;;;;;;11.48;6.20;;;11.40;99.90;;;;;;5046426;28;20391;-74
2021/09/08 05:04:01;;;;;;;10.73;6.30;;;11.40;99.90;;;;;;5047250;28;20025;-73
2021/09/08 05:06:27;;;;;;;10.77;5.80;;;11.50;99.90;;;;;;5048510;28;20028;-74
2021/09/08 05:08:53;;;;;;;10.40;5.65;;;11.50;99.90;;;;;;5042112;28;20368;-74
2021/09/08 05:11:18;;;;;;;9.15;5.70;;;11.50;99.90;;;;;;5042812;28;20041;-72
2021/09/08 05:13:43;;;;;;;12.93;5.47;;;11.50;99.90;;;;;;5042101;28;20185;-72
2021/09/08 05:16:09;;;;;;;10.07;5.60;;;11.50;99.90;;;;;;5047164;28;20548;-72
2021/09/08 05:18:39;;;;;;;9.65;5.82;;;11.50;99.90;;;;;;5039050;28;20029;-69
2021/09/08 05:21:04;;;;;;;10.57;6.00;;;11.60;99.90;;;;;;5045242;28;20041;-68
2021/09/08 05:23:30;;;;;;;11.80;6.35;;;11.50;99.90;;;;;;5045249;28;20116;-75
2021/09/08 05:25:55;;;;;;;12.20;6.30;;;11.60;99.90;;;;;;5045471;28;20384;-72
2021/09/08 05:28:21;;;;;;;12.60;6.10;;;11.60;99.90;;;;;;5042698;28;20771;-73
2021/09/08 05:30:47;;;;;;;12.27;6.50;;;11.60;99.90;;;;;;5042992;28;20067;-72
2021/09/08 05:33:13;;;;;;;12.80;6.65;;;11.60;99.90;;;;;;5041188;28;20053;-75
2021/09/08 05:35:38;;;;;;;10.55;6.75;;;11.70;99.90;;;;;;5038456;28;20631;-75
2021/09/08 05:38:04;;;;;;;11.73;6.25;;;11.70;99.90;;;;;;5040355;28;20009;-73
2021/09/08 05:40:31;;;;;;;16.63;6.97;;;11.70;99.90;;;;;;5033617;28;20404;-74
2021/09/08 05:42:56;;;;;;;13.02;7.03;;;11.80;99.90;;;;;;5042427;28;20017;-72
2021/09/08 05:45:24;;;;;;;12.88;7.07;;;11.80;99.90;;;;;;5043993;28;20071;-72
2021/09/08 05:47:50;;;;;;;12.75;6.85;;;11.90;99.90;;;;;;5042615;28;20469;-72
2021/09/08 05:50:16;;;;;;;11.95;7.07;;;12.00;99.90;;;;;;5047044;28;20598;-73
2021/09/08 05:52:41;;;;;;;16.92;7.70;;;12.00;99.90;;;;;;5046505;28;20032;-72
2021/09/08 05:55:07;;;;;;;14.73;7.82;;;12.00;99.90;;;;;;5044165;28;20025;-72
2021/09/08 05:57:33;;;;;;;18.13;7.75;;;12.10;99.90;;;;;;5049179;28;20036;-73
2021/09/08 06:00:03;;;;;;;15.15;7.63;;;12.10;99.90;;;;;;5059663;28;20028;-73
2021/09/08 06:02:28;;;;;;;13.88;7.65;;;12.10;99.90;;;;;;5049708;28;20040;-72
2021/09/08 06:04:53;;;;;;;14.68;8.27;;;12.20;99.90;;;;;;5049170;28;20028;-72
2021/09/08 06:07:19;;;;;;;17.05;7.82;;;12.30;99.90;;;;;;5049946;28;20044;-72
2021/09/08 06:09:44;;;;;;;15.77;7.40;;;12.30;99.90;;;;;;5050623;28;20415;-72
2021/09/08 06:12:10;;;;;;;18.08;9.32;;;12.40;99.90;;;;;;5049294;28;20108;-72
2021/09/08 06:14:35;;;;;;;17.40;8.45;;;12.40;99.90;;;;;;5047416;28;20025;-72
2021/09/08 06:17:01;;;;;;;16.40;8.80;;;12.50;99.90;;;;;;5047933;28;20020;-74
2021/09/08 06:19:26;;;;;;;18.23;8.73;;;12.50;99.90;;;;;;5045015;28;20059;-75
2021/09/08 06:21:52;;;;;;;20.42;9.20;;;12.60;99.90;;;;;;5051407;28;20029;-75
2021/09/08 06:24:18;;;;;;;19.50;9.52;;;12.60;99.90;;;;;;5049126;28;20032;-75
2021/09/08 06:27:15;;;;;;;19.88;10.23;;;12.70;99.90;;;;;;5050388;28;20029;-73
2021/09/08 06:29:40;;;;;;;19.30;9.27;;;12.70;99.90;;;;;;5047540;28;20522;-72
2021/09/08 06:32:06;;;;;;;16.88;9.35;;;12.80;99.90;;;;;;5049187;28;20032;-73
2021/09/08 06:34:31;;;;;;;20.83;10.57;;;12.90;99.90;;;;;;5050065;28;20083;-74
2021/09/08 06:36:57;;;;;;;20.17;10.77;;;13.00;99.90;;;;;;5046608;28;20044;-72
2021/09/08 06:39:22;;;;;;;18.73;10.63;;;13.10;99.90;;;;;;5046114;28;20052;-73
2021/09/08 06:41:48;;;;;;;23.60;11.00;;;13.10;99.90;;;;;;5046043;28;20788;-73
2021/09/08 06:44:15;;;;;;;22.00;10.63;;;13.20;99.90;;;;;;5047820;28;20051;-73
2021/09/08 06:46:41;;;;;;;21.73;11.93;;;13.30;99.90;;;;;;5045177;28;20029;-73
2021/09/08 06:49:06;;;;;;;20.83;11.57;;;13.40;99.90;;;;;;5045767;28;20028;-76
2021/09/08 06:51:32;;;;;;;21.35;11.82;;;13.50;99.90;;;;;;5045591;28;20060;-73
2021/09/08 06:53:57;;;;;;;21.30;10.90;;;13.60;99.90;;;;;;5047778;28;20055;-74
2021/09/08 06:56:23;;;;;;;18.88;11.65;;;13.70;99.90;;;;;;5046944;28;20029;-74
2021/09/08 06:58:48;;;;;;;22.80;11.55;;;13.80;99.90;;;;;;5048791;28;20049;-75
2021/09/08 07:01:13;;;;;;;21.17;12.40;;;13.90;99.90;;;;;;5049786;28;20052;-73
2021/09/08 07:03:39;;;;;;;24.13;11.95;;;14.00;99.90;;;;;;5049490;28;20082;-73
2021/09/08 07:06:04;;;;;;;27.73;11.75;;;14.00;99.90;;;;;;5049318;28;20391;-73
2021/09/08 07:08:30;;;;;;;23.27;11.30;;;14.20;99.90;;;;;;5047812;28;20095;-72
2021/09/08 07:10:56;;;;;;;22.27;11.35;;;14.30;99.90;;;;;;5049294;28;20037;-72
2021/09/08 07:13:21;;;;;;;20.38;11.45;;;14.40;99.90;;;;;;5045466;28;20442;-77
2021/09/08 07:15:47;;;;;;;18.98;10.55;;;14.50;99.90;;;;;;5047337;28;20033;-76
2021/09/08 07:18:12;;;;;;;23.23;11.00;;;14.50;99.90;;;;;;5044426;28;20051;-76
2021/09/08 07:20:40;;;;;;;17.23;10.30;;;14.60;99.90;;;;;;5033376;28;20443;-76
2021/09/08 07:23:06;;;;;;;22.38;10.85;;;14.70;99.90;;;;;;5041612;28;20051;-76
2021/09/08 07:25:32;;;;;;;21.27;10.57;;;14.80;99.90;;;;;;5046619;28;20483;-76
2021/09/08 07:27:57;;;;;;;21.05;9.98;;;15.00;99.90;;;;;;5047641;28;20028;-76
2021/09/08 07:30:23;;;;;;;17.50;10.40;;;15.10;99.90;;;;;;5041805;28;20372;-76
2021/09/08 07:32:48;;;;;;;21.60;10.07;;;15.10;99.90;;;;;;5045983;28;20116;-76
2021/09/08 07:35:14;;;;;;;16.60;9.20;;;15.20;99.90;;;;;;5046890;28;20060;-76
2021/09/08 07:37:40;;;;;;;18.27;9.50;;;15.30;99.90;;;;;;5045350;28;20434;-76
2021/09/08 07:40:08;;;;;;;15.73;9.43;;;15.40;99.90;;;;;;5048353;28;20549;-76
2021/09/08 07:42:33;;;;;;;16.35;9.43;;;15.50;99.90;;;;;;5042582;28;20415;-73
2021/09/08 07:44:59;;;;;;;17.67;8.63;;;15.60;99.90;;;;;;5045476;28;20051;-73
2021/09/08 07:47:24;;;;;;;15.30;8.02;;;15.70;99.90;;;;;;5048039;28;20067;-73
2021/09/08 07:49:50;;;;;;;20.98;8.75;;;15.80;99.90;;;;;;5047429;28;20036;-73
2021/09/08 07:52:15;;;;;;;16.30;8.23;;;15.90;99.90;;;;;;5047926;28;20099;-73
2021/09/08 07:54:41;;;;;;;13.65;7.30;;;16.00;99.90;;;;;;5047807;28;20419;-73
2021/09/08 07:57:06;;;;;;;16.67;7.90;;;16.10;99.90;;;;;;5046214;28;20086;-72
2021/09/08 07:59:32;;;;;;;16.33;7.65;;;16.30;99.90;;;;;;5043748;28;20037;-73
2021/09/08 08:01:57;;;;;;;11.50;6.70;;;16.30;99.90;;;;;;5040859;28;20163;-73
2021/09/08 08:04:24;;;;;;;11.43;7.47;;;16.50;99.90;;;;;;5041280;28;20044;-73
2021/09/08 08:06:49;;;;;;;16.85;6.95;;;16.60;99.90;;;;;;5045561;28;20040;-73
2021/09/08 08:09:15;;;;;;;13.15;7.38;;;16.70;99.90;;;;;;5047366;28;20471;-73
2021/09/08 08:11:40;;;;;;;13.40;6.63;;;16.80;99.90;;;;;;5044106;28;20033;-73
2021/09/08 08:14:06;;;;;;;10.55;6.53;;;16.90;99.90;;;;;;5043752;28;20025;-73
2021/09/08 08:16:32;;;;;;;11.30;7.03;;;17.10;99.90;;;;;;5048357;28;20124;-73
2021/09/08 08:18:58;;;;;;;17.60;6.47;;;17.30;99.90;;;;;;5043487;28;20035;-73
2021/09/08 08:21:23;;;;;;;14.02;6.43;;;17.40;99.90;;;;;;5041750;28;20219;-73
2021/09/08 08:23:49;;;;;;;10.88;6.78;;;17.50;99.90;;;;;;5041685;28;20029;-73
2021/09/08 08:26:18;;;;;;;10.85;5.97;;;17.60;99.90;;;;;;5043888;28;20029;-73
2021/09/08 08:28:44;;;;;;;14.98;6.93;;;17.60;99.90;;;;;;5045881;28;20036;-73
2021/09/08 08:31:09;;;;;;;10.18;5.63;;;17.70;99.90;;;;;;5042387;28;20028;-73
2021/09/08 08:33:35;;;;;;;10.57;6.50;;;17.80;99.90;;;;;;5040764;28;20406;-73
2021/09/08 08:36:00;;;;;;;12.90;7.13;;;17.80;99.90;;;;;;5045467;28;20029;-73
2021/09/08 08:38:26;;;;;;;14.93;6.40;;;18.00;99.90;;;;;;5039358;28;20041;-73
2021/09/08 08:40:51;;;;;;;10.75;5.88;;;18.10;99.90;;;;;;5041952;28;20033;-73
2021/09/08 08:43:18;;;;;;;10.00;6.15;;;18.10;99.90;;;;;;5043355;28;20120;-73
2021/09/08 08:45:44;;;;;;;9.77;6.15;;;18.20;99.90;;;;;;5039605;28;20507;-72
2021/09/08 08:48:10;;;;;;;9.63;5.35;;;18.30;99.90;;;;;;5043108;28;20538;-74
2021/09/08 08:50:36;;;;;;;10.43;6.57;;;18.40;99.90;;;;;;5043370;28;20117;-73
2021/09/08 08:53:01;;;;;;;10.52;6.15;;;18.50;99.90;;;;;;5042252;28;20040;-74
2021/09/08 08:55:27;;;;;;;11.88;6.75;;;18.60;99.90;;;;;;5042126;28;20068;-73
2021/09/08 08:57:53;;;;;;;11.38;6.07;;;18.60;99.90;;;;;;5042147;28;20036;-73
2021/09/08 09:00:21;;;;;;;10.48;6.05;;;18.60;99.90;;;;;;5047201;28;20672;-73
2021/09/08 09:02:48;;;;;;;14.70;6.15;;;18.60;99.90;;;;;;5046799;28;20398;-73
2021/09/08 09:05:38;;;;;;;15.90;6.40;;;18.60;99.90;;;;;;5047444;28;20056;-73
2021/09/08 09:08:07;;;;;;;10.15;6.30;;;18.70;99.90;;;;;;5043977;28;20025;-70
2021/09/08 09:10:33;;;;;;;11.20;5.97;;;18.70;99.90;;;;;;5048089;28;20025;-71
2021/09/08 09:12:58;;;;;;;13.32;5.93;;;18.70;99.90;;;;;;5042025;28;20124;-71
2021/09/08 09:15:24;;;;;;;14.68;6.95;;;18.80;99.90;;;;;;5036699;28;20116;-71
2021/09/08 09:17:51;;;;;;;11.50;5.57;;;18.90;99.90;;;;;;5051427;28;20445;-72
2021/09/08 09:20:23;;;;;;;13.60;6.55;;;19.00;99.90;;;;;;5039486;28;20052;-71
2021/09/08 09:22:59;;;;;;;10.35;6.13;;;19.10;99.90;;;;;;5042810;28;20025;-71
2021/09/08 09:25:32;;;;;;;15.00;6.28;;;19.10;99.90;;;;;;5040479;28;20025;-70
2021/09/08 09:28:03;;;;;;;13.32;6.25;;;19.20;99.90;;;;;;5037389;28;20035;-70
2021/09/08 09:30:34;;;;;;;9.32;5.55;;;19.30;99.90;;;;;;5047405;28;20029;-70
2021/09/08 09:33:01;;;;;;;10.60;5.93;;;19.40;99.90;;;;;;5049710;28;20041;-70
2021/09/08 09:35:29;;;;;;;10.32;5.80;;;19.50;99.90;;;;;;5050331;28;20663;-70
2021/09/08 09:37:58;;;;;;;10.18;5.30;;;19.50;99.60;;;;;;5050055;28;20025;-70
2021/09/08 09:40:52;;;;;;;9.80;5.63;;;19.60;98.10;;;;;;5048247;28;20029;-70
2021/09/08 09:43:18;;;;;;;10.85;5.93;;;19.80;99.50;;;;;;5049074;28;20503;-70
2021/09/08 09:45:45;;;;;;;14.75;5.95;;;20.10;98.70;;;;;;5048847;28;20143;-70
2021/09/08 09:48:10;;;;;;;11.65;5.55;;;20.20;97.40;;;;;;5051272;28;20036;-70
2021/09/08 09:50:37;;;;;;;10.30;6.00;;;20.40;95.70;;;;;;5050956;28;20029;-70
2021/09/08 09:53:03;;;;;;;9.60;5.68;;;20.50;97.30;;;;;;5044697;28;20372;-69
2021/09/08 09:55:32;;;;;;;10.60;5.45;;;20.70;97.00;;;;;;5044181;28;20079;-69
2021/09/08 09:57:59;;;;;;;8.68;5.55;;;20.70;93.90;;;;;;5052250;28;20072;-69
2021/09/08 10:00:24;;;;;;;12.00;6.28;;;20.70;94.80;;;;;;5051204;28;20028;-70
2021/09/08 10:02:50;;;;;;;12.52;6.07;;;20.80;93.70;;;;;;5050036;28;20036;-72
2021/09/08 10:05:16;;;;;;;10.43;5.60;;;20.80;94.10;;;;;;5044049;28;20067;-72
2021/09/08 10:07:41;;;;;;;9.52;6.45;;;20.70;92.50;;;;;;5048590;28;20057;-70
2021/09/08 10:10:25;;;;;;;14.85;5.40;;;20.70;93.10;;;;;;5051016;28;20056;-70
2021/09/08 10:13:07;;;;;;;11.45;6.00;;;20.70;92.70;;;;;;5046442;28;20037;-69
2021/09/08 10:15:34;;;;;;;12.88;6.03;;;20.90;93.40;;;;;;5050337;28;20107;-71
2021/09/08 10:18:07;;;;;;;9.98;5.80;;;21.00;94.40;;;;;;5046748;28;20553;-71
2021/09/08 10:20:33;;;;;;;13.13;5.72;;;21.10;92.10;;;;;;5044044;28;20053;-72
2021/09/08 10:23:07;;;;;;;8.15;5.20;;;21.10;91.70;;;;;;5051690;28;20029;-71
2021/09/08 10:25:32;;;;;;;12.15;5.55;;;21.20;90.00;;;;;;5049139;28;20033;-70
2021/09/08 10:27:58;;;;;;;9.38;5.40;;;21.30;92.00;;;;;;5040175;28;20383;-73
2021/09/08 10:30:25;;;;;;;10.50;5.28;;;21.40;90.90;;;;;;5044853;28;20423;-71
2021/09/08 10:32:52;;;;;;;11.65;5.97;;;21.50;89.40;;;;;;5048673;28;20033;-72
2021/09/08 10:35:18;;;;;;;11.00;5.88;;;21.60;90.60;;;;;;5049768;28;20082;-71
2021/09/08 10:37:46;;;;;;;10.70;5.25;;;21.70;86.50;;;;;;5047639;28;20039;-71
2021/09/08 10:40:16;;;;;;;9.02;5.60;;;21.80;89.50;;;;;;5050247;28;20036;-77
2021/09/08 10:42:53;;;;;;;8.88;6.07;;;21.90;89.40;;;;;;5046299;28;20491;-72
2021/09/08 10:45:29;;;;;;;12.48;6.32;;;22.00;84.80;;;;;;5045537;28;20025;-73
2021/09/08 10:47:57;;;;;;;17.10;6.55;;;22.20;84.50;;;;;;5047605;28;20112;-73
2021/09/08 10:50:34;;;;;;;9.40;5.68;;;22.30;87.40;;;;;;5047651;28;20086;-74
2021/09/08 10:53:04;;;;;;;10.48;6.15;;;22.40;86.70;;;;;;5045183;28;20032;-75
2021/09/08 10:55:44;;;;;;;10.07;6.28;;;22.20;84.70;;;;;;5040920;28;20051;-75
2021/09/08 10:58:51;;;;;;;7.97;5.20;;;22.20;87.50;;;;;;5047400;28;20021;-75
2021/09/08 11:01:20;;;;;;;9.23;5.82;;;22.40;87.50;;;;;;5046026;28;20314;-75
2021/09/08 11:03:45;;;;;;;8.70;5.95;;;22.50;87.00;;;;;;5046394;28;20025;-75
2021/09/08 11:06:11;;;;;;;10.18;6.40;;;22.80;85.50;;;;;;5047786;28;20021;-75
2021/09/08 11:08:36;;;;;;;9.65;5.38;;;23.00;83.70;;;;;;5048927;28;20024;-75
2021/09/08 11:11:12;;;;;;;13.70;6.22;;;23.20;83.30;;;;;;5048673;28;20064;-75
2021/09/08 11:13:39;;;;;;;7.82;5.50;;;23.30;81.70;;;;;;5048520;28;20102;-74
2021/09/08 11:16:37;;;;;;;12.55;5.47;;;23.50;82.10;;;;;;5047550;28;20028;-76
2021/09/08 11:19:04;;;;;;;6.82;5.22;;;23.70;78.10;;;;;;5034090;28;20033;-76
2021/09/08 11:21:32;;;;;;;10.40;5.78;;;23.80;75.20;;;;;;5040475;28;20159;-76
2021/09/08 11:24:09;;;;;;;9.90;5.88;;;24.00;74.50;;;;;;5048924;28;20036;-77
2021/09/08 11:26:37;;;;;;;9.00;5.93;;;24.10;75.00;;;;;;5044525;28;20040;-79
2021/09/08 11:29:07;;;;;;;9.10;5.50;;;;;;;;;;5047467;28;20634;-76
2021/09/08 11:31:43;;;;;;;9.45;5.93;;;;;;;;;;5048420;28;20406;-76
2021/09/08 11:34:18;;;;;;;8.35;5.82;;;24.40;75.30;;;;;;5049826;28;20029;-76
2021/09/08 11:36:44;;;;;;;9.55;5.10;;;25.40;69.80;;;;;;5047207;28;20502;-76
2021/09/08 11:39:15;;;;;;;9.27;5.55;;;25.60;68.40;;;;;;5044222;28;20029;-77
2021/09/08 11:41:53;;;;;;;10.82;5.57;;;25.70;67.40;;;;;;5045711;28;20104;-75
2021/09/08 11:44:22;;;;;;;10.40;5.65;;;26.10;66.50;;;;;;5047565;28;20410;-76
2021/09/08 11:46:48;;;;;;;6.28;4.55;;;26.40;64.50;;;;;;5047449;28;20036;-76
2021/09/08 11:49:13;;;;;;;6.30;4.90;;;26.80;64.50;;;;;;5047931;28;20380;-76
2021/09/08 11:51:41;;;;;;;8.45;5.82;;;27.10;63.30;;;;;;5048023;28;20067;-76
2021/09/08 11:54:13;;;;;;;7.82;5.32;;;27.30;60.60;;;;;;5048169;28;20111;-76
2021/09/08 11:56:39;;;;;;;7.85;5.68;;;27.50;60.70;;;;;;5046402;28;20071;-76
2021/09/08 11:59:06;;;;;;;8.15;5.45;;;27.80;59.70;;;;;;5043028;28;20048;-76
2021/09/08 12:01:39;;;;;;;7.25;5.03;;;28.10;57.70;;;;;;5047932;28;20139;-76
2021/09/08 12:04:06;;;;;;;6.03;4.45;;;28.30;57.40;;;;;;5046638;28;20033;-76
2021/09/08 12:06:34;;;;;;;8.23;4.63;;;28.60;55.50;;;;;;5047129;28;20139;-76
2021/09/08 12:09:11;;;;;;;9.27;4.80;;;29.00;54.60;;;;;;5047374;28;20055;-77
2021/09/08 12:11:41;;;;;;;7.13;5.00;;;29.70;51.40;;;;;;5045892;28;20490;-76
2021/09/08 12:14:22;;;;;;;7.70;5.57;;;29.80;53.10;;;;;;5047370;28;20048;-75
2021/09/08 12:16:50;;;;;;;6.78;5.07;;;29.70;52.40;;;;;;5038879;28;20029;-75
2021/09/08 12:19:27;;;;;;;8.70;5.38;;;29.90;54.30;;;;;;5047042;28;20048;-76
2021/09/08 12:22:02;;;;;;;9.75;5.45;;;30.30;53.90;;;;;;5046831;28;20097;-69
2021/09/08 12:24:31;;;;;;;7.13;5.25;;;30.80;51.10;;;;;;5048713;28;20488;-69
2021/09/08 12:26:58;;;;;;;7.18;5.57;;;31.00;51.10;;;;;;5048759;28;20024;-71
2021/09/08 12:29:24;;;;;;;7.97;5.47;;;31.30;50.20;;;;;;5039649;28;20113;-70
2021/09/08 12:32:02;;;;;;;8.32;5.43;;;31.40;49.80;;;;;;5047610;28;20036;-70
2021/09/08 12:34:45;;;;;;;7.18;5.18;;;;;;;;;;5034661;28;20336;-70
2021/09/08 12:37:13;;;;;;;8.73;5.05;;;;;;;;;;5047483;28;20175;-69
2021/09/08 12:39:43;;;;;;;6.38;5.03;;;;;;;;;;5042980;28;20025;-69
2021/09/08 12:42:16;;;;;;;9.80;5.18;;;;;;;;;;5046721;28;20067;-69